sensor_id;sensor_type;location;lat;lon;timestamp;pressure;altitude;pressure_sealevel;temperature;humidity
70304;BME280;57712;48.752;11.348;2023-05-03T00:01:20;98279.59;;;8.10;100.00
70304;BME280;57712;48.752;11.348;2023-05-03T00:03:51;98277.66;;;8.07;100.00
70304;BME280;57712;48.752;11.348;2023-05-03T00:06:18;98275.31;;;8.09;100.00
70304;BME280;57712;48.752;11.348;2023-05-03T00:08:45;98276.88;;;8.10;100.00
70304;BME280;57712;48.752;11.348;2023-05-03T00:11:12;98274.13;;;8.03;100.00
70304;BME280;57712;48.752;11.348;2023-05-03T00:13:38;98279.59;;;8.03;100.00
70304;BME280;57712;48.752;11.348;2023-05-03T00:16:05;98272.56;;;8.02;100.00
70304;BME280;57712;48.752;11.348;2023-05-03T00:18:31;98270.56;;;7.92;100.00
70304;BME280;57712;48.752;11.348;2023-05-03T00:20:58;98278.34;;;7.90;100.00
70304;BME280;57712;48.752;11.348;2023-05-03T00:23:25;98273.25;;;7.85;100.00
70304;BME280;57712;48.752;11.348;2023-05-03T00:25:54;98284.56;;;7.87;100.00
70304;BME280;57712;48.752;11.348;2023-05-03T00:28:22;98277.53;;;7.86;100.00
70304;BME280;57712;48.752;11.348;2023-05-03T00:30:49;98283.78;;;7.83;100.00
70304;BME280;57712;48.752;11.348;2023-05-03T00:33:16;98271.28;;;7.82;100.00
70304;BME280;57712;48.752;11.348;2023-05-03T00:35:43;98276.31;;;7.80;100.00
70304;BME280;57712;48.752;11.348;2023-05-03T00:38:10;98277.88;;;7.74;100.00
70304;BME280;57712;48.752;11.348;2023-05-03T00:40:37;98277.88;;;7.74;100.00
70304;BME280;57712;48.752;11.348;2023-05-03T00:43:04;98280.59;;;7.77;100.00
70304;BME280;57712;48.752;11.348;2023-05-03T00:45:32;98277.47;;;7.72;100.00
70304;BME280;57712;48.752;11.348;2023-05-03T00:48:00;98277.81;;;7.63;100.00
70304;BME280;57712;48.752;11.348;2023-05-03T00:50:27;98280.53;;;7.67;100.00
70304;BME280;57712;48.752;11.348;2023-05-03T00:52:54;98264.19;;;7.67;100.00
70304;BME280;57712;48.752;11.348;2023-05-03T00:55:21;98269.63;;;7.67;100.00
70304;BME280;57712;48.752;11.348;2023-05-03T00:57:51;98270.78;;;7.62;100.00
70304;BME280;57712;48.752;11.348;2023-05-03T01:00:18;98275.78;;;7.57;100.00
70304;BME280;57712;48.752;11.348;2023-05-03T01:02:45;98270.72;;;7.55;100.00
70304;BME280;57712;48.752;11.348;2023-05-03T01:05:12;98269.56;;;7.52;100.00
70304;BME280;57712;48.752;11.348;2023-05-03T01:07:47;98271.91;;;7.54;100.00
70304;BME280;57712;48.752;11.348;2023-05-03T01:10:54;98278.13;;;7.55;100.00
70304;BME280;57712;48.752;11.348;2023-05-03T01:13:39;98262.88;;;7.46;100.00
70304;BME280;57712;48.752;11.348;2023-05-03T01:16:35;98275.75;;;7.49;100.00
70304;BME280;57712;48.752;11.348;2023-05-03T01:19:18;98269.47;;;7.42;100.00
70304;BME280;57712;48.752;11.348;2023-05-03T01:21:57;98265.97;;;7.41;100.00
70304;BME280;57712;48.752;11.348;2023-05-03T01:24:25;98269.06;;;7.40;100.00
70304;BME280;57712;48.752;11.348;2023-05-03T01:26:52;98270.22;;;7.39;100.00
70304;BME280;57712;48.752;11.348;2023-05-03T01:29:21;98270.59;;;7.37;100.00
70304;BME280;57712;48.752;11.348;2023-05-03T01:32:00;98263.97;;;7.38;100.00
70304;BME280;57712;48.752;11.348;2023-05-03T01:34:49;98259.28;;;7.35;100.00
70304;BME280;57712;48.752;11.348;2023-05-03T01:37:17;98262.03;;;7.35;100.00
70304;BME280;57712;48.752;11.348;2023-05-03T01:40:00;98270.19;;;7.32;100.00
70304;BME280;57712;48.752;11.348;2023-05-03T01:42:28;98269.41;;;7.31;100.00
70304;BME280;57712;48.752;11.348;2023-05-03T01:44:55;98269.34;;;7.24;100.00
70304;BME280;57712;48.752;11.348;2023-05-03T01:47:22;98271.25;;;7.20;100.00
70304;BME280;57712;48.752;11.348;2023-05-03T01:49:49;98270.91;;;7.25;100.00
70304;BME280;57712;48.752;11.348;2023-05-03T01:52:15;98270.09;;;7.21;100.00
70304;BME280;57712;48.752;11.348;2023-05-03T01:54:42;98264.66;;;7.21;100.00
70304;BME280;57712;48.752;11.348;2023-05-03T01:57:09;98271.63;;;7.18;100.00
70304;BME280;57712;48.752;11.348;2023-05-03T01:59:36;98270.50;;;7.23;100.00
70304;BME280;57712;48.752;11.348;2023-05-03T02:02:03;98264.66;;;7.21;100.00
70304;BME280;57712;48.752;11.348;2023-05-03T02:04:29;98275.06;;;7.12;100.00
70304;BME280;57712;48.752;11.348;2023-05-03T02:06:56;98274.69;;;7.10;100.00
70304;BME280;57712;48.752;11.348;2023-05-03T02:09:24;98264.56;;;7.10;100.00
70304;BME280;57712;48.752;11.348;2023-05-03T02:11:50;98269.63;;;7.12;100.00
70304;BME280;57712;48.752;11.348;2023-05-03T02:14:17;98267.59;;;7.02;100.00
70304;BME280;57712;48.752;11.348;2023-05-03T02:16:44;98269.91;;;7.00;100.00
70304;BME280;57712;48.752;11.348;2023-05-03T02:19:11;98273.44;;;7.00;100.00
70304;BME280;57712;48.752;11.348;2023-05-03T02:21:38;98272.97;;;6.94;100.00
70304;BME280;57712;48.752;11.348;2023-05-03T02:24:04;98267.19;;;7.00;100.00
70304;BME280;57712;48.752;11.348;2023-05-03T02:26:31;98274.16;;;6.97;100.00
70304;BME280;57712;48.752;11.348;2023-05-03T02:28:58;98263.63;;;6.95;100.00
70304;BME280;57712;48.752;11.348;2023-05-03T02:31:25;98271.78;;;6.92;100.00
70304;BME280;57712;48.752;11.348;2023-05-03T02:33:52;98264.31;;;6.85;100.00
70304;BME280;57712;48.752;11.348;2023-05-03T02:36:20;98269.03;;;6.88;100.00
70304;BME280;57712;48.752;11.348;2023-05-03T02:38:47;98267.88;;;6.89;100.00
70304;BME280;57712;48.752;11.348;2023-05-03T02:41:14;98264.31;;;6.85;100.00
70304;BME280;57712;48.752;11.348;2023-05-03T02:43:40;98264.31;;;6.85;100.00
70304;BME280;57712;48.752;11.348;2023-05-03T02:46:08;98262.38;;;6.82;100.00
70304;BME280;57712;48.752;11.348;2023-05-03T02:48:35;98268.97;;;6.81;100.00
70304;BME280;57712;48.752;11.348;2023-05-03T02:51:02;98266.16;;;6.74;100.00
70304;BME280;57712;48.752;11.348;2023-05-03T02:53:28;98271.13;;;6.65;100.00
70304;BME280;57712;48.752;11.348;2023-05-03T02:55:55;98268.00;;;6.63;100.00
70304;BME280;57712;48.752;11.348;2023-05-03T02:58:23;98264.88;;;6.61;100.00
70304;BME280;57712;48.752;11.348;2023-05-03T03:00:49;98266.44;;;6.62;100.00
70304;BME280;57712;48.752;11.348;2023-05-03T03:03:16;98257.69;;;6.46;100.00
70304;BME280;57712;48.752;11.348;2023-05-03T03:05:43;98270.97;;;6.47;100.00
70304;BME280;57712;48.752;11.348;2023-05-03T03:08:10;98270.09;;;6.40;100.00
70304;BME280;57712;48.752;11.348;2023-05-03T03:10:36;98273.63;;;6.44;100.00
70304;BME280;57712;48.752;11.348;2023-05-03T03:13:03;98269.97;;;6.29;100.00
70304;BME280;57712;48.752;11.348;2023-05-03T03:15:30;98272.31;;;6.30;100.00
70304;BME280;57712;48.752;11.348;2023-05-03T03:17:56;98274.53;;;6.21;100.00
70304;BME280;57712;48.752;11.348;2023-05-03T03:20:23;98270.25;;;6.20;100.00
70304;BME280;57712;48.752;11.348;2023-05-03T03:22:50;98275.38;;;6.25;100.00
70304;BME280;57712;48.752;11.348;2023-05-03T03:25:17;98275.59;;;6.13;100.00
70304;BME280;57712;48.752;11.348;2023-05-03T03:27:43;98274.44;;;6.14;100.00
70304;BME280;57712;48.752;11.348;2023-05-03T03:30:10;98272.38;;;6.04;100.00
70304;BME280;57712;48.752;11.348;2023-05-03T03:32:37;98271.66;;;6.07;100.00
70304;BME280;57712;48.752;11.348;2023-05-03T03:35:04;98272.72;;;5.99;100.00
70304;BME280;57712;48.752;11.348;2023-05-03T03:37:31;98271.56;;;6.00;100.00
70304;BME280;57712;48.752;11.348;2023-05-03T03:39:57;98268.03;;;5.96;100.00
70304;BME280;57712;48.752;11.348;2023-05-03T03:42:27;98275.81;;;5.97;100.00
70304;BME280;57712;48.752;11.348;2023-05-03T03:44:53;98271.91;;;5.95;100.00
70304;BME280;57712;48.752;11.348;2023-05-03T03:47:20;98287.47;;;5.98;100.00
70304;BME280;57712;48.752;11.348;2023-05-03T03:49:47;98282.03;;;5.98;100.00
70304;BME280;57712;48.752;11.348;2023-05-03T03:52:14;98289.78;;;5.96;100.00
70304;BME280;57712;48.752;11.348;2023-05-03T03:54:41;98287.88;;;6.00;100.00
70304;BME280;57712;48.752;11.348;2023-05-03T03:57:08;98296.03;;;6.00;100.00
70304;BME280;57712;48.752;11.348;2023-05-03T03:59:35;98290.59;;;6.00;100.00
70304;BME280;57712;48.752;11.348;2023-05-03T04:02:02;98294.13;;;6.04;100.00
70304;BME280;57712;48.752;11.348;2023-05-03T04:04:29;98299.56;;;6.04;100.00
70304;BME280;57712;48.752;11.348;2023-05-03T04:07:03;98306.25;;;6.10;100.00
70304;BME280;57712;48.752;11.348;2023-05-03T04:09:30;98300.44;;;6.12;100.00
70304;BME280;57712;48.752;11.348;2023-05-03T04:11:56;98311.03;;;6.17;100.00
70304;BME280;57712;48.752;11.348;2023-05-03T04:14:23;98309.50;;;6.19;100.00
70304;BME280;57712;48.752;11.348;2023-05-03T04:16:49;98319.91;;;6.14;100.00
70304;BME280;57712;48.752;11.348;2023-05-03T04:19:16;98320.38;;;6.19;100.00
70304;BME280;57712;48.752;11.348;2023-05-03T04:21:44;98315.81;;;6.27;100.00
70304;BME280;57712;48.752;11.348;2023-05-03T04:24:13;98323.25;;;6.33;100.00
70304;BME280;57712;48.752;11.348;2023-05-03T04:26:40;98322.16;;;6.38;100.00
70304;BME280;57712;48.752;11.348;2023-05-03T04:29:08;98324.50;;;6.40;100.00
70304;BME280;57712;48.752;11.348;2023-05-03T04:31:37;98331.25;;;6.49;100.00
70304;BME280;57712;48.752;11.348;2023-05-03T04:34:04;98320.78;;;6.55;100.00
70304;BME280;57712;48.752;11.348;2023-05-03T04:36:31;98323.19;;;6.60;100.00
70304;BME280;57712;48.752;11.348;2023-05-03T04:38:58;98333.34;;;6.63;100.00
70304;BME280;57712;48.752;11.348;2023-05-03T04:41:25;98331.84;;;6.69;100.00
70304;BME280;57712;48.752;11.348;2023-05-03T04:43:53;98330.34;;;6.75;100.00
70304;BME280;57712;48.752;11.348;2023-05-03T04:46:19;98334.31;;;6.81;100.00
70304;BME280;57712;48.752;11.348;2023-05-03T04:48:46;98331.31;;;6.93;100.00
70304;BME280;57712;48.752;11.348;2023-05-03T04:51:13;98338.50;;;7.09;100.00
70304;BME280;57712;48.752;11.348;2023-05-03T04:53:40;98331.53;;;7.15;100.00
70304;BME280;57712;48.752;11.348;2023-05-03T04:56:07;98336.66;;;7.20;100.00
70304;BME280;57712;48.752;11.348;2023-05-03T04:58:33;98338.72;;;7.34;100.00
70304;BME280;57712;48.752;11.348;2023-05-03T05:01:05;98338.72;;;7.37;100.00
70304;BME280;57712;48.752;11.348;2023-05-03T05:03:32;98339.59;;;7.45;100.00
70304;BME280;57712;48.752;11.348;2023-05-03T05:05:59;98338.09;;;7.55;100.00
70304;BME280;57712;48.752;11.348;2023-05-03T05:08:26;98343.97;;;7.60;100.00
70304;BME280;57712;48.752;11.348;2023-05-03T05:10:53;98342.16;;;7.75;100.00
70304;BME280;57712;48.752;11.348;2023-05-03T05:13:19;98344.50;;;7.80;100.00
70304;BME280;57712;48.752;11.348;2023-05-03T05:15:46;98348.50;;;7.93;100.00
70304;BME280;57712;48.752;11.348;2023-05-03T05:18:13;98343.06;;;7.97;100.00
70304;BME280;57712;48.752;11.348;2023-05-03T05:20:39;98352.53;;;8.14;100.00
70304;BME280;57712;48.752;11.348;2023-05-03T05:23:06;98343.19;;;8.18;100.00
70304;BME280;57712;48.752;11.348;2023-05-03T05:25:33;98341.69;;;8.28;100.00
70304;BME280;57712;48.752;11.348;2023-05-03T05:27:59;98343.34;;;8.43;100.00
70304;BME280;57712;48.752;11.348;2023-05-03T05:30:26;98337.94;;;8.61;100.00
70304;BME280;57712;48.752;11.348;2023-05-03T05:32:53;98340.72;;;8.72;100.00
70304;BME280;57712;48.752;11.348;2023-05-03T05:35:20;98345.81;;;8.77;100.00
70304;BME280;57712;48.752;11.348;2023-05-03T05:37:46;98345.06;;;8.87;100.00
70304;BME280;57712;48.752;11.348;2023-05-03T05:40:13;98349.03;;;9.07;100.00
70304;BME280;57712;48.752;11.348;2023-05-03T05:42:40;98345.88;;;9.05;100.00
70304;BME280;57712;48.752;11.348;2023-05-03T05:45:08;98350.59;;;9.37;100.00
70304;BME280;57712;48.752;11.348;2023-05-03T05:47:34;98361.56;;;9.44;100.00
70304;BME280;57712;48.752;11.348;2023-05-03T05:50:01;98356.88;;;9.41;100.00
70304;BME280;57712;48.752;11.348;2023-05-03T05:52:42;98356.09;;;9.72;100.00
70304;BME280;57712;48.752;11.348;2023-05-03T05:55:09;98350.59;;;9.79;100.00
70304;BME280;57712;48.752;11.348;2023-05-03T05:57:39;98363.09;;;9.95;100.00
70304;BME280;57712;48.752;11.348;2023-05-03T06:00:06;98355.28;;;9.97;100.00
70304;BME280;57712;48.752;11.348;2023-05-03T06:02:40;98356.84;;;9.98;100.00
70304;BME280;57712;48.752;11.348;2023-05-03T06:05:08;98356.81;;;10.08;100.00
70304;BME280;57712;48.752;11.348;2023-05-03T06:07:36;98352.91;;;10.13;100.00
70304;BME280;57712;48.752;11.348;2023-05-03T06:10:03;98362.31;;;10.23;100.00
70304;BME280;57712;48.752;11.348;2023-05-03T06:12:30;98359.94;;;10.25;100.00
70304;BME280;57712;48.752;11.348;2023-05-03T06:14:57;98369.31;;;10.34;100.00
70304;BME280;57712;48.752;11.348;2023-05-03T06:17:28;98365.72;;;10.55;100.00
70304;BME280;57712;48.752;11.348;2023-05-03T06:19:56;98362.22;;;10.48;100.00
70304;BME280;57712;48.752;11.348;2023-05-03T06:22:23;98371.56;;;10.64;100.00
70304;BME280;57712;48.752;11.348;2023-05-03T06:24:50;98360.66;;;10.54;100.00
70304;BME280;57712;48.752;11.348;2023-05-03T06:27:17;98364.53;;;10.63;100.00
70304;BME280;57712;48.752;11.348;2023-05-03T06:29:44;98364.41;;;10.88;100.00
70304;BME280;57712;48.752;11.348;2023-05-03T06:32:11;98357.34;;;10.94;100.00
70304;BME280;57712;48.752;11.348;2023-05-03T06:34:37;98355.69;;;11.08;100.00
70304;BME280;57712;48.752;11.348;2023-05-03T06:37:04;98357.94;;;11.20;100.00
70304;BME280;57712;48.752;11.348;2023-05-03T06:39:32;98371.03;;;11.57;100.00
70304;BME280;57712;48.752;11.348;2023-05-03T06:41:58;98367.06;;;11.62;100.00
70304;BME280;57712;48.752;11.348;2023-05-03T06:44:25;98367.47;;;11.60;100.00
70304;BME280;57712;48.752;11.348;2023-05-03T06:46:52;98375.13;;;11.31;100.00
70304;BME280;57712;48.752;11.348;2023-05-03T06:49:19;98369.44;;;11.56;100.00
70304;BME280;57712;48.752;11.348;2023-05-03T06:51:45;98364.22;;;11.72;100.00
70304;BME280;57712;48.752;11.348;2023-05-03T06:54:12;98363.66;;;11.99;100.00
70304;BME280;57712;48.752;11.348;2023-05-03T06:56:40;98362.84;;;11.98;100.00
70304;BME280;57712;48.752;11.348;2023-05-03T06:59:06;98359.66;;;12.03;100.00
70304;BME280;57712;48.752;11.348;2023-05-03T07:01:33;98366.28;;;12.09;100.00
70304;BME280;57712;48.752;11.348;2023-05-03T07:04:00;98367.94;;;12.37;100.00
70304;BME280;57712;48.752;11.348;2023-05-03T07:06:27;98370.38;;;12.28;100.00
70304;BME280;57712;48.752;11.348;2023-05-03T07:08:58;98358.16;;;12.36;100.00
70304;BME280;57712;48.752;11.348;2023-05-03T07:11:25;98357.06;;;12.30;100.00
70304;BME280;57712;48.752;11.348;2023-05-03T07:13:53;98354.97;;;12.38;100.00
70304;BME280;57712;48.752;11.348;2023-05-03T07:16:20;98349.91;;;12.36;100.00
70304;BME280;57712;48.752;11.348;2023-05-03T07:18:47;98345.56;;;12.69;100.00
70304;BME280;57712;48.752;11.348;2023-05-03T07:21:14;98345.69;;;12.62;100.00
70304;BME280;57712;48.752;11.348;2023-05-03T07:23:41;98343.03;;;12.86;100.00
70304;BME280;57712;48.752;11.348;2023-05-03T07:26:08;98331.53;;;13.21;100.00
70304;BME280;57712;48.752;11.348;2023-05-03T07:28:37;98327.16;;;13.51;100.00
70304;BME280;57712;48.752;11.348;2023-05-03T07:31:03;98334.97;;;13.56;100.00
70304;BME280;57712;48.752;11.348;2023-05-03T07:33:33;98333.25;;;13.62;100.00
70304;BME280;57712;48.752;11.348;2023-05-03T07:36:00;98331.09;;;13.50;100.00
70304;BME280;57712;48.752;11.348;2023-05-03T07:38:27;98335.56;;;13.67;100.00
70304;BME280;57712;48.752;11.348;2023-05-03T07:40:55;98329.53;;;13.96;100.00
70304;BME280;57712;48.752;11.348;2023-05-03T07:43:21;98331.34;;;13.82;100.00
70304;BME280;57712;48.752;11.348;2023-05-03T07:45:49;98329.19;;;13.70;100.00
70304;BME280;57712;48.752;11.348;2023-05-03T07:48:15;98329.03;;;13.04;100.00
70304;BME280;57712;48.752;11.348;2023-05-03T07:50:43;98327.53;;;13.76;100.00
70304;BME280;57712;48.752;11.348;2023-05-03T07:53:10;98327.81;;;14.49;100.00
70304;BME280;57712;48.752;11.348;2023-05-03T07:55:37;98320.47;;;14.19;100.00
70304;BME280;57712;48.752;11.348;2023-05-03T07:58:04;98325.34;;;14.11;100.00
70304;BME280;57712;48.752;11.348;2023-05-03T08:00:31;98330.31;;;14.39;100.00
70304;BME280;57712;48.752;11.348;2023-05-03T08:02:58;98320.22;;;14.53;100.00
70304;BME280;57712;48.752;11.348;2023-05-03T08:05:25;98329.34;;;14.50;100.00
70304;BME280;57712;48.752;11.348;2023-05-03T08:07:52;98323.50;;;13.81;100.00
70304;BME280;57712;48.752;11.348;2023-05-03T08:10:19;98314.66;;;14.13;100.00
70304;BME280;57712;48.752;11.348;2023-05-03T08:12:46;98323.59;;;14.40;100.00
70304;BME280;57712;48.752;11.348;2023-05-03T08:15:13;98317.56;;;14.85;100.00
70304;BME280;57712;48.752;11.348;2023-05-03T08:17:41;98323.34;;;15.59;100.00
70304;BME280;57712;48.752;11.348;2023-05-03T08:20:09;98324.09;;;14.75;100.00
70304;BME280;57712;48.752;11.348;2023-05-03T08:22:39;98319.72;;;15.30;100.00
70304;BME280;57712;48.752;11.348;2023-05-03T08:25:07;98329.13;;;15.33;100.00
70304;BME280;57712;48.752;11.348;2023-05-03T08:27:33;98325.44;;;15.55;100.00
70304;BME280;57712;48.752;11.348;2023-05-03T08:30:00;98328.25;;;15.19;100.00
70304;BME280;57712;48.752;11.348;2023-05-03T08:32:28;98323.38;;;15.43;100.00
70304;BME280;57712;48.752;11.348;2023-05-03T08:34:56;98324.03;;;15.47;100.00
70304;BME280;57712;48.752;11.348;2023-05-03T08:37:23;98319.72;;;15.46;100.00
70304;BME280;57712;48.752;11.348;2023-05-03T08:39:50;98318.69;;;15.40;100.00
70304;BME280;57712;48.752;11.348;2023-05-03T08:42:17;98314.88;;;15.50;100.00
70304;BME280;57712;48.752;11.348;2023-05-03T08:44:46;98317.16;;;15.72;100.00
70304;BME280;57712;48.752;11.348;2023-05-03T08:47:16;98316.72;;;15.57;100.00
70304;BME280;57712;48.752;11.348;2023-05-03T08:49:43;98319.97;;;15.52;100.00
70304;BME280;57712;48.752;11.348;2023-05-03T08:52:11;98312.38;;;15.40;100.00
70304;BME280;57712;48.752;11.348;2023-05-03T08:54:40;98318.84;;;15.49;100.00
70304;BME280;57712;48.752;11.348;2023-05-03T08:57:13;98319.47;;;15.41;100.00
70304;BME280;57712;48.752;11.348;2023-05-03T08:59:50;98323.09;;;15.54;100.00
70304;BME280;57712;48.752;11.348;2023-05-03T09:02:19;98325.03;;;15.05;100.00
70304;BME280;57712;48.752;11.348;2023-05-03T09:04:47;98325.91;;;15.18;100.00
70304;BME280;57712;48.752;11.348;2023-05-03T09:07:14;98320.38;;;15.18;100.00
70304;BME280;57712;48.752;11.348;2023-05-03T09:09:42;98326.94;;;15.08;100.00
70304;BME280;57712;48.752;11.348;2023-05-03T09:12:32;98318.63;;;15.60;100.00
70304;BME280;57712;48.752;11.348;2023-05-03T09:14:59;98319.19;;;16.00;100.00
70304;BME280;57712;48.752;11.348;2023-05-03T09:17:26;98326.00;;;16.83;100.00
70304;BME280;57712;48.752;11.348;2023-05-03T09:19:56;98325.81;;;16.61;100.00
70304;BME280;57712;48.752;11.348;2023-05-03T09:22:25;98317.28;;;16.55;100.00
70304;BME280;57712;48.752;11.348;2023-05-03T09:24:59;98315.25;;;16.43;100.00
70304;BME280;57712;48.752;11.348;2023-05-03T09:27:26;98324.03;;;16.96;100.00
70304;BME280;57712;48.752;11.348;2023-05-03T09:29:53;98324.78;;;16.71;100.00
70304;BME280;57712;48.752;11.348;2023-05-03T09:32:21;98326.25;;;16.88;100.00
70304;BME280;57712;48.752;11.348;2023-05-03T09:34:48;98321.13;;;16.87;100.00
70304;BME280;57712;48.752;11.348;2023-05-03T09:37:14;98318.28;;;17.03;100.00
70304;BME280;57712;48.752;11.348;2023-05-03T09:39:44;98319.06;;;16.91;100.00
70304;BME280;57712;48.752;11.348;2023-05-03T09:42:13;98310.63;;;16.82;100.00
70304;BME280;57712;48.752;11.348;2023-05-03T09:44:49;98315.06;;;17.55;100.00
70304;BME280;57712;48.752;11.348;2023-05-03T09:47:19;98321.94;;;17.51;100.00
70304;BME280;57712;48.752;11.348;2023-05-03T09:49:51;98319.19;;;17.13;100.00
70304;BME280;57712;48.752;11.348;2023-05-03T09:52:18;98315.16;;;17.77;100.00
70304;BME280;57712;48.752;11.348;2023-05-03T09:54:45;98322.38;;;17.37;100.00
70304;BME280;57712;48.752;11.348;2023-05-03T09:57:13;98313.88;;;17.31;95.14
70304;BME280;57712;48.752;11.348;2023-05-03T09:59:44;98318.09;;;17.10;100.00
70304;BME280;57712;48.752;11.348;2023-05-03T10:02:11;98318.84;;;18.74;100.00
70304;BME280;57712;48.752;11.348;2023-05-03T10:04:42;98326.00;;;18.63;98.79
70304;BME280;57712;48.752;11.348;2023-05-03T10:07:13;98316.88;;;17.97;100.00
70304;BME280;57712;48.752;11.348;2023-05-03T10:09:43;98318.78;;;18.22;96.93
70304;BME280;57712;48.752;11.348;2023-05-03T10:12:11;98306.41;;;18.13;100.00
70304;BME280;57712;48.752;11.348;2023-05-03T10:14:39;98314.91;;;18.41;96.24
70304;BME280;57712;48.752;11.348;2023-05-03T10:17:17;98296.81;;;19.02;89.50
70304;BME280;57712;48.752;11.348;2023-05-03T10:20:01;98308.78;;;17.89;91.86
70304;BME280;57712;48.752;11.348;2023-05-03T10:25:34;98296.97;;;18.55;80.33
70304;BME280;57712;48.752;11.348;2023-05-03T10:28:05;98290.38;;;18.83;78.20
70304;BME280;57712;48.752;11.348;2023-05-03T10:30:36;98287.06;;;18.97;83.83
70304;BME280;57712;48.752;11.348;2023-05-03T10:35:41;98285.91;;;21.27;72.63
70304;BME280;57712;48.752;11.348;2023-05-03T10:38:24;98291.03;;;20.41;71.74
70304;BME280;57712;48.752;11.348;2023-05-03T10:40:51;98282.16;;;21.21;68.22
70304;BME280;57712;48.752;11.348;2023-05-03T10:45:57;98286.94;;;20.88;63.74
70304;BME280;57712;48.752;11.348;2023-05-03T10:48:25;98277.53;;;21.18;63.12
70304;BME280;57712;48.752;11.348;2023-05-03T10:50:55;98291.19;;;21.16;59.64
70304;BME280;57712;48.752;11.348;2023-05-03T10:53:40;98284.16;;;21.63;64.42
70304;BME280;57712;48.752;11.348;2023-05-03T10:56:10;98284.47;;;20.90;72.51
70304;BME280;57712;48.752;11.348;2023-05-03T10:58:48;98274.97;;;20.54;73.20
70304;BME280;57712;48.752;11.348;2023-05-03T11:01:17;98271.53;;;20.41;77.01
70304;BME280;57712;48.752;11.348;2023-05-03T11:03:56;98283.06;;;19.39;79.16
70304;BME280;57712;48.752;11.348;2023-05-03T11:06:34;98278.69;;;18.88;80.89
70304;BME280;57712;48.752;11.348;2023-05-03T11:09:03;98273.44;;;19.98;77.22
70304;BME280;57712;48.752;11.348;2023-05-03T11:11:33;98266.03;;;20.23;64.36
70304;BME280;57712;48.752;11.348;2023-05-03T11:14:00;98271.22;;;20.66;62.71
70304;BME280;57712;48.752;11.348;2023-05-03T11:16:28;98267.88;;;20.16;63.59
70304;BME280;57712;48.752;11.348;2023-05-03T11:18:55;98255.03;;;20.98;59.33
70304;BME280;57712;48.752;11.348;2023-05-03T11:21:22;98259.97;;;21.36;67.83
70304;BME280;57712;48.752;11.348;2023-05-03T11:23:48;98255.84;;;20.89;56.54
70304;BME280;57712;48.752;11.348;2023-05-03T11:26:15;98254.16;;;22.65;62.65
70304;BME280;57712;48.752;11.348;2023-05-03T11:28:42;98257.94;;;22.08;59.74
70304;BME280;57712;48.752;11.348;2023-05-03T11:31:10;98241.44;;;20.91;57.79
70304;BME280;57712;48.752;11.348;2023-05-03T11:33:38;98247.19;;;21.53;58.01
70304;BME280;57712;48.752;11.348;2023-05-03T11:36:07;98242.59;;;21.65;56.96
70304;BME280;57712;48.752;11.348;2023-05-03T11:38:37;98244.56;;;21.26;56.59
70304;BME280;57712;48.752;11.348;2023-05-03T11:41:17;98240.94;;;20.50;58.45
70304;BME280;57712;48.752;11.348;2023-05-03T11:43:49;98253.97;;;20.07;56.26
70304;BME280;57712;48.752;11.348;2023-05-03T11:46:32;98243.84;;;21.07;53.29
70304;BME280;57712;48.752;11.348;2023-05-03T11:49:00;98242.91;;;21.10;52.72
70304;BME280;57712;48.752;11.348;2023-05-03T11:51:28;98245.66;;;21.19;58.78
70304;BME280;57712;48.752;11.348;2023-05-03T11:53:55;98247.53;;;21.13;56.62
70304;BME280;57712;48.752;11.348;2023-05-03T11:56:22;98249.03;;;22.48;52.66
70304;BME280;57712;48.752;11.348;2023-05-03T12:01:26;98238.16;;;22.51;53.96
70304;BME280;57712;48.752;11.348;2023-05-03T12:06:26;98233.41;;;21.74;56.78
70304;BME280;57712;48.752;11.348;2023-05-03T12:08:55;98237.47;;;20.73;59.99
70304;BME280;57712;48.752;11.348;2023-05-03T12:11:23;98238.56;;;21.66;61.07
70304;BME280;57712;48.752;11.348;2023-05-03T12:14:00;98240.78;;;21.38;57.92
70304;BME280;57712;48.752;11.348;2023-05-03T12:16:28;98236.31;;;21.79;54.82
70304;BME280;57712;48.752;11.348;2023-05-03T12:19:11;98232.41;;;21.62;55.70
70304;BME280;57712;48.752;11.348;2023-05-03T12:21:44;98235.50;;;21.07;56.78
70304;BME280;57712;48.752;11.348;2023-05-03T12:24:23;98234.47;;;20.35;57.47
70304;BME280;57712;48.752;11.348;2023-05-03T12:26:54;98236.50;;;19.98;63.12
70304;BME280;57712;48.752;11.348;2023-05-03T12:29:22;98232.66;;;19.86;59.99
70304;BME280;57712;48.752;11.348;2023-05-03T12:31:50;98227.56;;;19.84;64.22
70304;BME280;57712;48.752;11.348;2023-05-03T12:34:17;98232.63;;;19.68;68.70
70304;BME280;57712;48.752;11.348;2023-05-03T12:36:48;98232.66;;;19.09;64.34
70304;BME280;57712;48.752;11.348;2023-05-03T12:39:14;98222.22;;;19.31;62.96
70304;BME280;57712;48.752;11.348;2023-05-03T12:41:42;98218.13;;;19.73;61.53
70304;BME280;57712;48.752;11.348;2023-05-03T12:44:28;98220.22;;;20.42;58.79
70304;BME280;57712;48.752;11.348;2023-05-03T12:46:59;98214.72;;;20.84;59.72
70304;BME280;57712;48.752;11.348;2023-05-03T12:49:27;98216.00;;;21.07;57.44
70304;BME280;57712;48.752;11.348;2023-05-03T12:51:54;98209.03;;;21.02;57.54
70304;BME280;57712;48.752;11.348;2023-05-03T12:54:28;98211.09;;;20.93;55.03
70304;BME280;57712;48.752;11.348;2023-05-03T12:57:00;98204.22;;;21.03;56.62
70304;BME280;57712;48.752;11.348;2023-05-03T12:59:37;98206.47;;;20.90;56.45
70304;BME280;57712;48.752;11.348;2023-05-03T13:02:11;98194.19;;;20.63;55.52
70304;BME280;57712;48.752;11.348;2023-05-03T13:04:41;98201.88;;;19.89;51.74
70304;BME280;57712;48.752;11.348;2023-05-03T13:07:25;98192.22;;;20.55;57.98
70304;BME280;57712;48.752;11.348;2023-05-03T13:09:57;98192.00;;;20.77;57.32